createdAt,value
2019-04-10T00:00:08.892Z,38.13
2019-04-10T00:02:37.861Z,36.90
2019-04-10T00:05:07.580Z,36.47
2019-04-10T00:07:37.511Z,39.77
2019-04-10T00:10:07.747Z,38.87
2019-04-10T00:12:36.735Z,40.23
2019-04-10T00:15:07.166Z,40.40
2019-04-10T00:17:37.494Z,41.00
2019-04-10T00:20:07.846Z,42.13
2019-04-10T00:22:38.129Z,42.00
2019-04-10T00:25:08.486Z,40.77
2019-04-10T00:27:38.869Z,42.00
2019-04-10T00:30:09.098Z,40.70
2019-04-10T00:32:38.547Z,44.37
2019-04-10T00:35:07.667Z,44.40
2019-04-10T00:37:37.370Z,43.83
2019-04-10T00:40:06.927Z,42.03
2019-04-10T00:42:37.001Z,45.17
2019-04-10T00:45:06.408Z,44.80
2019-04-10T00:47:35.447Z,44.37
2019-04-10T00:50:04.865Z,45.77
2019-04-10T00:52:34.532Z,47.33
2019-04-10T00:55:03.880Z,46.27
2019-04-10T00:57:33.839Z,44.90
2019-04-10T01:00:04.308Z,46.87
2019-04-10T01:02:34.534Z,47.73
2019-04-10T01:05:03.941Z,47.77
2019-04-10T01:07:38.586Z,46.70
2019-04-10T01:10:06.037Z,46.30
2019-04-10T01:12:36.236Z,49.70
2019-04-10T01:15:06.631Z,47.83
2019-04-10T01:17:36.011Z,46.23
2019-04-10T01:20:05.775Z,46.37
2019-04-10T01:22:35.901Z,47.30
2019-04-10T01:25:06.164Z,48.43
2019-04-10T01:27:36.133Z,45.70
2019-04-10T01:30:06.981Z,48.23
2019-04-10T01:32:37.913Z,47.37
2019-04-10T01:35:07.890Z,47.23
2019-04-10T01:37:48.797Z,45.60
2019-04-10T01:40:08.304Z,48.07
2019-04-10T01:42:37.219Z,45.80
2019-04-10T01:45:06.393Z,47.10
2019-04-10T01:47:35.966Z,50.33
2019-04-10T01:50:06.259Z,48.43
2019-04-10T01:52:35.449Z,46.63
2019-04-10T01:55:18.136Z,47.90
2019-04-10T01:57:36.633Z,49.10
2019-04-10T02:00:06.858Z,49.20
2019-04-10T02:02:55.908Z,49.57
2019-04-10T02:05:25.336Z,48.17
2019-04-10T02:08:05.717Z,47.47
2019-04-10T02:10:25.898Z,47.30
2019-04-10T02:12:55.587Z,47.77
2019-04-10T02:15:25.937Z,45.93
2019-04-10T02:17:55.146Z,47.77
2019-04-10T02:20:25.004Z,48.07
2019-04-10T02:22:54.890Z,47.50
2019-04-10T02:25:24.251Z,50.00
2019-04-10T02:27:54.402Z,47.33
2019-04-10T02:30:24.104Z,47.97
2019-04-10T02:32:54.593Z,47.40
2019-04-10T02:35:24.738Z,47.90
2019-04-10T02:37:56.080Z,46.07
2019-04-10T02:40:25.542Z,47.93
2019-04-10T02:42:54.886Z,48.67
2019-04-10T02:45:24.282Z,48.90
2019-04-10T02:47:54.929Z,47.10
2019-04-10T02:50:25.297Z,48.07
2019-04-10T02:52:55.121Z,48.53
2019-04-10T02:55:25.154Z,48.30
2019-04-10T02:57:55.882Z,47.03
2019-04-10T03:00:26.560Z,48.13
2019-04-10T03:02:57.722Z,48.10
2019-04-10T03:05:27.438Z,45.57
2019-04-10T03:07:58.172Z,47.00
2019-04-10T03:10:38.330Z,48.40
2019-04-10T03:12:59.299Z,47.60
2019-04-10T03:15:31.333Z,46.77
2019-04-10T03:18:00.837Z,48.10
2019-04-10T03:20:30.093Z,48.00
2019-04-10T03:22:59.424Z,49.67
2019-04-10T03:25:28.862Z,49.03
2019-04-10T03:27:58.711Z,47.23
2019-04-10T03:30:29.751Z,48.57
2019-04-10T03:33:28.872Z,49.93
2019-04-10T03:35:55.298Z,44.53
2019-04-10T03:38:24.150Z,46.83
2019-04-10T03:40:53.429Z,47.67
2019-04-10T03:43:22.992Z,46.20
2019-04-10T03:45:52.937Z,47.00
2019-04-10T03:48:22.976Z,47.07
2019-04-10T03:50:52.750Z,48.50
2019-04-10T03:53:22.162Z,43.20
2019-04-10T03:55:52.197Z,42.50
2019-04-10T03:58:21.122Z,44.37
2019-04-10T04:00:50.716Z,46.40
2019-04-10T04:03:20.413Z,46.00
2019-04-10T04:05:49.669Z,46.50
2019-04-10T04:08:19.336Z,45.63
2019-04-10T04:10:49.016Z,40.37
2019-04-10T04:13:19.470Z,42.80
2019-04-10T04:15:48.654Z,42.20
2019-04-10T04:18:19.197Z,42.80
2019-04-10T04:20:48.265Z,44.73
2019-04-10T04:23:17.533Z,43.50
2019-04-10T04:25:46.724Z,44.40
2019-04-10T04:28:16.909Z,43.40
2019-04-10T04:30:45.928Z,43.13
2019-04-10T04:33:15.462Z,44.30
2019-04-10T04:35:45.912Z,44.70
2019-04-10T04:38:16.186Z,41.60
2019-04-10T04:40:46.145Z,41.93
2019-04-10T04:43:16.678Z,41.93
2019-04-10T04:45:46.312Z,42.40
2019-04-10T04:48:15.287Z,44.00
2019-04-10T04:50:45.699Z,43.37
2019-04-10T04:53:16.229Z,41.47
2019-04-10T04:55:45.315Z,41.67
2019-04-10T04:58:14.304Z,42.77
2019-04-10T05:00:43.223Z,43.60
2019-04-10T05:03:12.484Z,42.03
2019-04-10T05:05:42.077Z,44.10
2019-04-10T05:08:11.234Z,41.00
2019-04-10T05:10:40.152Z,42.60
2019-04-10T05:13:10.201Z,41.57
2019-04-10T05:15:39.272Z,41.87
2019-04-10T05:18:08.880Z,41.10
2019-04-10T05:20:45.445Z,41.63
2019-04-10T05:23:10.206Z,43.47
2019-04-10T05:25:39.744Z,41.40
2019-04-10T05:28:08.957Z,42.13
2019-04-10T05:30:38.182Z,43.07
2019-04-10T05:33:08.210Z,43.13
2019-04-10T05:35:57.018Z,42.17
2019-04-10T05:38:27.080Z,41.07
2019-04-10T05:40:57.161Z,38.47
2019-04-10T05:43:26.331Z,41.83
2019-04-10T05:45:55.322Z,42.60
2019-04-10T05:48:25.440Z,42.13
2019-04-10T05:51:02.262Z,40.43
2019-04-10T05:53:26.687Z,39.47
2019-04-10T05:55:56.000Z,41.03
2019-04-10T05:58:25.804Z,37.43
2019-04-10T06:00:56.827Z,39.00
2019-04-10T06:03:25.800Z,39.07
2019-04-10T06:05:54.985Z,40.90
2019-04-10T06:08:23.866Z,39.17
2019-04-10T06:10:53.153Z,40.50
2019-04-10T06:13:22.827Z,37.40
2019-04-10T06:15:52.929Z,39.10
2019-04-10T06:18:22.878Z,37.73
2019-04-10T06:20:52.005Z,36.13
2019-04-10T06:23:20.909Z,38.37
2019-04-10T06:25:49.966Z,36.90
2019-04-10T06:28:19.135Z,36.67
2019-04-10T06:30:50.060Z,35.53
2019-04-10T06:33:20.128Z,35.97
2019-04-10T06:35:49.525Z,35.60
2019-04-10T06:38:18.981Z,37.07
2019-04-10T06:40:48.440Z,36.43
2019-04-10T06:43:17.731Z,34.77
2019-04-10T06:45:46.602Z,36.77
2019-04-10T06:48:15.726Z,33.80
2019-04-10T06:50:45.976Z,35.13
2019-04-10T06:53:16.266Z,36.63
2019-04-10T06:55:46.869Z,33.30
2019-04-10T06:58:16.187Z,35.80
2019-04-10T07:00:48.619Z,34.70
2019-04-10T07:03:16.939Z,33.67
2019-04-10T07:06:00.485Z,33.73
2019-04-10T07:08:22.183Z,34.37
2019-04-10T07:10:58.868Z,32.50
2019-04-10T07:13:20.289Z,33.80
2019-04-10T07:15:49.853Z,31.53
2019-04-10T07:18:20.595Z,31.80
2019-04-10T07:20:50.404Z,31.83
2019-04-10T07:23:26.781Z,30.70
2019-04-10T07:25:50.648Z,32.67
2019-04-10T07:28:19.765Z,31.00
2019-04-10T07:30:49.376Z,30.90
2019-04-10T07:33:19.949Z,30.87
2019-04-10T07:35:50.328Z,30.90
2019-04-10T07:38:21.238Z,31.33
2019-04-10T07:40:51.180Z,31.70
2019-04-10T07:43:25.486Z,30.23
2019-04-10T07:45:51.193Z,30.93
2019-04-10T07:48:20.565Z,30.03
2019-04-10T07:50:49.885Z,29.97
2019-04-10T07:53:19.457Z,32.50
2019-04-10T07:56:00.363Z,31.33
2019-04-10T07:58:19.582Z,30.27
2019-04-10T08:00:58.865Z,32.50
2019-04-10T08:03:28.765Z,28.50
2019-04-10T08:05:58.912Z,29.70
2019-04-10T08:08:28.465Z,32.93
2019-04-10T08:10:57.932Z,32.90
2019-04-10T08:13:26.859Z,30.40
2019-04-10T08:15:56.346Z,31.77
2019-04-10T08:18:25.991Z,31.07
2019-04-10T08:20:55.182Z,30.23
2019-04-10T08:23:24.532Z,33.03
2019-04-10T08:25:53.829Z,29.67
2019-04-10T08:28:24.073Z,30.67
2019-04-10T08:30:53.141Z,30.70
2019-04-10T08:33:22.379Z,30.70
2019-04-10T08:35:51.700Z,29.23
2019-04-10T08:38:21.782Z,31.80
2019-04-10T08:40:52.281Z,31.23
2019-04-10T08:43:22.357Z,32.03
2019-04-10T08:45:52.545Z,30.20
2019-04-10T08:48:22.255Z,32.57
2019-04-10T08:50:51.128Z,31.13
2019-04-10T08:53:20.162Z,32.23
2019-04-10T08:55:49.079Z,34.83
2019-04-10T08:58:18.846Z,31.10
2019-04-10T09:00:49.841Z,31.33
2019-04-10T09:03:19.022Z,31.73
2019-04-10T09:05:49.098Z,33.97
2019-04-10T09:08:19.015Z,30.53
2019-04-10T09:10:48.292Z,32.87
2019-04-10T09:13:17.217Z,30.87
2019-04-10T09:15:46.411Z,34.03
2019-04-10T09:18:15.407Z,32.03
2019-04-10T09:20:44.779Z,33.93
2019-04-10T09:23:23.581Z,32.90
2019-04-10T09:25:44.675Z,33.50
2019-04-10T09:28:14.027Z,33.03
2019-04-10T09:30:44.822Z,33.13
2019-04-10T09:33:20.849Z,31.90
2019-04-10T09:35:45.178Z,31.40
2019-04-10T09:38:14.642Z,32.80
2019-04-10T09:40:44.720Z,32.80
2019-04-10T09:43:14.354Z,33.30
2019-04-10T09:45:44.132Z,31.33
2019-04-10T09:48:13.241Z,32.67
2019-04-10T09:50:42.240Z,32.80
2019-04-10T09:53:11.512Z,34.90
2019-04-10T09:55:40.571Z,34.17
2019-04-10T09:58:09.636Z,34.40
2019-04-10T10:00:40.145Z,34.67
2019-04-10T10:03:09.785Z,34.13
2019-04-10T10:05:39.123Z,34.87
2019-04-10T10:08:09.132Z,34.47
2019-04-10T10:10:39.766Z,35.27
2019-04-10T10:13:09.617Z,35.30
2019-04-10T10:15:39.133Z,34.40
2019-04-10T10:18:08.885Z,32.83
2019-04-10T10:20:38.207Z,34.90
2019-04-10T10:23:07.130Z,34.43
2019-04-10T10:25:37.472Z,32.97
2019-04-10T10:28:06.993Z,36.30
2019-04-10T10:30:37.691Z,35.93
2019-04-10T10:33:07.771Z,33.80
2019-04-10T10:35:36.781Z,36.50
2019-04-10T10:38:05.871Z,34.10
2019-04-10T10:40:35.867Z,35.33
2019-04-10T10:43:04.864Z,36.27
2019-04-10T10:45:34.629Z,34.17
2019-04-10T10:48:07.199Z,36.80
2019-04-10T10:50:34.659Z,34.90
2019-04-10T10:53:04.068Z,36.63
2019-04-10T10:55:33.797Z,36.83
2019-04-10T10:58:03.678Z,35.53
2019-04-10T11:00:33.550Z,36.80
2019-04-10T11:03:02.852Z,33.97
2019-04-10T11:05:33.269Z,32.80
2019-04-10T11:08:02.794Z,37.73
2019-04-10T11:10:31.752Z,35.80
2019-04-10T11:13:02.285Z,37.03
2019-04-10T11:15:32.059Z,35.47
2019-04-10T11:18:02.006Z,33.77
2019-04-10T11:20:32.206Z,37.13
2019-04-10T11:23:01.780Z,36.50
2019-04-10T11:25:32.363Z,33.00
2019-04-10T11:28:03.875Z,35.03
2019-04-10T11:30:34.542Z,37.33
2019-04-10T11:33:04.078Z,36.07
2019-04-10T11:35:33.436Z,38.83
2019-04-10T11:38:03.445Z,37.20
2019-04-10T11:40:34.327Z,37.50
2019-04-10T11:43:05.343Z,40.23
2019-04-10T11:45:41.308Z,37.50
2019-04-10T11:48:06.043Z,36.70
2019-04-10T11:50:35.052Z,36.17
2019-04-10T11:53:04.552Z,38.47
2019-04-10T11:55:43.091Z,37.73
2019-04-10T11:58:05.577Z,36.70
2019-04-10T12:00:47.303Z,37.27
2019-04-10T12:03:12.743Z,36.73
2019-04-10T12:05:42.297Z,41.03
2019-04-10T12:13:16.447Z,35.70
2019-04-10T12:15:45.033Z,38.03
2019-04-10T12:18:14.506Z,38.20
2019-04-10T12:20:43.725Z,37.90
2019-04-10T12:23:13.107Z,39.47
2019-04-10T12:25:42.985Z,38.53
2019-04-10T12:28:12.407Z,38.67
2019-04-10T12:30:41.713Z,39.80
2019-04-10T12:33:11.711Z,38.87
2019-04-10T12:35:42.296Z,39.10
2019-04-10T12:38:13.204Z,37.60
2019-04-10T12:40:42.594Z,38.60
2019-04-10T12:43:12.632Z,37.87
2019-04-10T12:45:42.384Z,40.23
2019-04-10T12:48:12.451Z,36.83
2019-04-10T12:50:41.596Z,38.40
2019-04-10T12:53:11.578Z,38.67
2019-04-10T12:55:41.674Z,38.00
2019-04-10T12:58:15.754Z,40.97
2019-04-10T13:00:42.912Z,39.60
2019-04-10T13:03:12.449Z,40.53
2019-04-10T13:05:41.456Z,38.73
2019-04-10T13:08:17.891Z,40.13
2019-04-10T13:10:41.981Z,40.70
2019-04-10T13:13:11.552Z,39.30
2019-04-10T13:15:40.572Z,39.63
2019-04-10T13:18:09.657Z,42.73
2019-04-10T13:20:39.904Z,41.90
2019-04-10T13:23:09.191Z,42.50
2019-04-10T13:25:38.659Z,41.33
2019-04-10T13:28:08.850Z,39.93
2019-04-10T13:30:46.867Z,40.47
2019-04-10T13:33:09.221Z,40.77
2019-04-10T13:35:38.166Z,41.70
2019-04-10T13:38:08.688Z,41.67
2019-04-10T13:40:37.852Z,39.50
2019-04-10T13:43:06.840Z,42.23
2019-04-10T13:45:35.859Z,40.50
2019-04-10T13:48:06.035Z,39.90
2019-04-10T13:50:35.536Z,39.90
2019-04-10T13:53:04.464Z,40.53
2019-04-10T13:55:34.635Z,39.83
2019-04-10T13:58:04.005Z,40.33
2019-04-10T14:00:38.786Z,41.10
2019-04-10T14:03:07.048Z,39.10
2019-04-10T14:05:36.958Z,40.67
2019-04-10T14:08:06.476Z,38.27
2019-04-10T14:10:38.163Z,37.90
2019-04-10T14:13:07.360Z,36.67
2019-04-10T14:15:36.467Z,41.50
2019-04-10T14:18:06.196Z,38.00
2019-04-10T14:20:35.420Z,37.20
2019-04-10T14:23:22.316Z,39.53
2019-04-10T14:26:04.335Z,37.90
2019-04-10T14:28:33.461Z,38.93
2019-04-10T14:31:07.705Z,38.63
2019-04-10T14:33:37.777Z,38.67
2019-04-10T14:36:07.557Z,40.00
2019-04-10T14:38:37.047Z,39.33
2019-04-10T14:41:06.631Z,39.73
2019-04-10T14:43:35.827Z,39.33
2019-04-10T14:46:08.247Z,42.30
2019-04-10T14:48:38.326Z,38.40
2019-04-10T14:51:08.103Z,40.77
2019-04-10T14:53:37.271Z,38.10
2019-04-10T14:56:08.228Z,36.60
2019-04-10T14:58:38.869Z,37.10
2019-04-10T15:01:09.012Z,35.73
2019-04-10T15:03:38.920Z,40.60
2019-04-10T15:06:09.134Z,37.30
2019-04-10T15:08:39.707Z,36.93
2019-04-10T15:11:09.388Z,36.20
2019-04-10T15:13:38.402Z,42.17
2019-04-10T15:16:07.412Z,34.90
2019-04-10T15:18:37.176Z,34.80
2019-04-10T15:21:07.021Z,37.27
2019-04-10T15:23:36.153Z,34.00
2019-04-10T15:26:05.979Z,34.77
2019-04-10T15:28:36.063Z,35.90
2019-04-10T15:31:05.183Z,36.40
2019-04-10T15:33:35.039Z,34.30
2019-04-10T15:36:04.297Z,34.83
2019-04-10T15:38:33.916Z,35.67
2019-04-10T15:41:04.061Z,36.07
2019-04-10T15:43:33.799Z,32.73
2019-04-10T15:46:04.229Z,34.10
2019-04-10T15:48:33.547Z,33.43
2019-04-10T15:51:03.619Z,36.50
2019-04-10T15:53:32.812Z,38.20
2019-04-10T15:56:01.821Z,35.43
2019-04-10T15:58:31.206Z,38.40
2019-04-10T16:01:01.165Z,37.63
2019-04-10T16:03:30.383Z,34.30
2019-04-10T16:05:59.923Z,32.90
2019-04-10T16:08:29.529Z,34.30
2019-04-10T16:11:17.331Z,33.73
2019-04-10T16:13:49.076Z,34.17
2019-04-10T16:16:42.636Z,31.53
2019-04-10T16:19:30.909Z,33.17
2019-04-10T16:22:01.113Z,33.80
2019-04-10T16:24:31.135Z,34.77
2019-04-10T16:27:00.307Z,34.83
2019-04-10T16:29:29.255Z,35.47
2019-04-10T16:31:58.392Z,35.00
2019-04-10T16:34:27.467Z,36.80
2019-04-10T16:36:57.712Z,35.30
2019-04-10T16:39:27.890Z,34.20
2019-04-10T16:41:57.970Z,32.87
2019-04-10T16:44:27.365Z,34.47
2019-04-10T16:46:57.364Z,33.47
2019-04-10T16:49:26.629Z,34.53
2019-04-10T16:51:56.615Z,31.33
2019-04-10T16:54:25.625Z,36.37
2019-04-10T16:56:54.559Z,33.70
2019-04-10T16:59:23.765Z,34.77
2019-04-10T17:01:53.245Z,34.67
2019-04-10T17:04:23.071Z,33.40
2019-04-10T17:06:52.577Z,35.90
2019-04-10T17:09:22.889Z,33.30
2019-04-10T17:11:53.550Z,34.43
2019-04-10T17:14:23.796Z,38.47
2019-04-10T17:16:53.666Z,33.90
2019-04-10T17:19:23.715Z,35.87
2019-04-10T17:21:54.200Z,34.33
2019-04-10T17:24:23.270Z,35.97
2019-04-10T17:26:52.275Z,34.33
2019-04-10T17:29:21.187Z,35.60
2019-04-10T17:31:50.897Z,33.93
2019-04-10T17:34:20.786Z,35.57
2019-04-10T17:36:51.392Z,36.43
2019-04-10T17:39:21.340Z,34.80
2019-04-10T17:41:50.568Z,35.43
2019-04-10T17:44:19.489Z,34.50
2019-04-10T17:46:49.185Z,36.00
2019-04-10T17:49:19.297Z,38.70
2019-04-10T17:51:48.743Z,38.03
2019-04-10T17:54:18.031Z,35.93
2019-04-10T17:56:48.518Z,38.70
2019-04-10T17:59:18.369Z,38.20
2019-04-10T18:01:47.427Z,38.77
2019-04-10T18:04:16.353Z,38.80
2019-04-10T18:06:46.984Z,37.00
2019-04-10T18:09:16.356Z,43.10
2019-04-10T18:11:45.690Z,41.30
2019-04-10T18:14:15.373Z,41.87
2019-04-10T18:16:44.380Z,44.07
2019-04-10T18:19:15.346Z,44.43
2019-04-10T18:21:44.443Z,41.60
2019-04-10T18:24:13.680Z,43.57
2019-04-10T18:26:43.706Z,43.20
2019-04-10T18:29:13.048Z,42.97
2019-04-10T18:31:43.102Z,43.60
2019-04-10T18:34:13.126Z,42.90
2019-04-10T18:36:44.825Z,46.00
2019-04-10T18:39:18.515Z,43.30
2019-04-10T18:41:48.574Z,47.50
2019-04-10T18:44:17.982Z,43.50
2019-04-10T18:46:47.195Z,43.63
2019-04-10T18:49:16.105Z,44.20
2019-04-10T18:51:45.933Z,42.33
2019-04-10T18:54:14.945Z,44.10
2019-04-10T18:56:45.035Z,42.90
2019-04-10T18:59:26.891Z,43.33
2019-04-10T19:02:21.244Z,42.50
2019-04-10T19:04:59.404Z,40.53
2019-04-10T19:07:28.656Z,39.87
2019-04-10T19:09:58.438Z,37.90
2019-04-10T19:12:27.291Z,38.37
2019-04-10T19:15:16.948Z,38.80
2019-04-10T19:17:46.848Z,38.53
2019-04-10T19:20:16.077Z,38.00
2019-04-10T19:22:45.329Z,37.30
2019-04-10T19:25:14.656Z,39.43
2019-04-10T19:27:44.487Z,37.67
2019-04-10T19:30:30.989Z,39.37
2019-04-10T19:33:01.719Z,37.60
2019-04-10T19:35:31.057Z,39.00
2019-04-10T19:38:01.004Z,39.30
2019-04-10T19:40:30.447Z,36.67
2019-04-10T19:42:59.982Z,36.07
2019-04-10T19:45:29.929Z,37.57
2019-04-10T19:47:59.034Z,34.37
2019-04-10T19:50:28.024Z,33.73
2019-04-10T19:52:57.245Z,33.93
2019-04-10T19:55:27.452Z,34.10
2019-04-10T19:57:57.473Z,33.63
2019-04-10T20:00:30.592Z,32.80
2019-04-10T20:02:59.877Z,32.60
2019-04-10T20:05:29.567Z,30.77
2019-04-10T20:07:59.631Z,31.73
2019-04-10T20:10:29.704Z,33.27
2019-04-10T20:12:59.427Z,32.97
2019-04-10T20:15:28.795Z,31.10
2019-04-10T20:17:58.197Z,32.87
2019-04-10T20:20:28.970Z,30.43
2019-04-10T20:22:58.306Z,32.87
2019-04-10T20:25:27.732Z,32.90
2019-04-10T20:27:56.760Z,34.30
2019-04-10T20:30:27.994Z,31.63
2019-04-10T20:32:58.535Z,34.13
2019-04-10T20:35:28.537Z,32.57
2019-04-10T20:37:57.509Z,33.73
2019-04-10T20:40:27.932Z,30.53
2019-04-10T20:42:57.045Z,31.77
2019-04-10T20:45:27.082Z,31.53
2019-04-10T20:47:56.144Z,30.73
2019-04-10T20:50:26.005Z,30.07
2019-04-10T20:52:55.809Z,33.80
2019-04-10T20:55:25.821Z,31.80
2019-04-10T20:57:56.297Z,32.87
2019-04-10T21:00:36.625Z,30.70
2019-04-10T21:03:05.540Z,32.23
2019-04-10T21:05:35.810Z,29.83
2019-04-10T21:08:05.175Z,32.00
2019-04-10T21:10:34.316Z,30.90
2019-04-10T21:13:04.403Z,33.40
2019-04-10T21:15:33.843Z,30.43
2019-04-10T21:18:02.860Z,32.37
2019-04-10T21:20:32.408Z,34.70
2019-04-10T21:23:01.550Z,32.47
2019-04-10T21:25:30.968Z,29.50
2019-04-10T21:28:00.414Z,30.83
2019-04-10T21:30:47.108Z,32.00
2019-04-10T21:33:44.941Z,29.90
2019-04-10T21:36:14.472Z,32.63
2019-04-10T21:38:44.868Z,32.93
2019-04-10T21:41:15.598Z,33.13
2019-04-10T21:43:45.549Z,32.63
2019-04-10T21:46:14.749Z,33.20
2019-04-10T21:48:43.605Z,32.20
2019-04-10T21:51:12.730Z,31.47
2019-04-10T21:53:41.929Z,31.27
2019-04-10T21:56:11.134Z,30.57
2019-04-10T21:58:40.846Z,31.57
2019-04-10T22:01:11.876Z,32.87
2019-04-10T22:03:41.473Z,32.87
2019-04-10T22:06:33.899Z,34.00
2019-04-10T22:09:24.837Z,33.70
2019-04-10T22:11:55.351Z,31.43
2019-04-10T22:14:24.355Z,31.73
2019-04-10T22:16:54.670Z,33.80
2019-04-10T22:19:23.986Z,33.17
2019-04-10T22:21:53.740Z,34.87
2019-04-10T22:24:23.527Z,33.40
2019-04-10T22:26:52.701Z,33.73
2019-04-10T22:29:22.675Z,33.23
2019-04-10T22:31:53.389Z,32.60
2019-04-10T22:34:22.847Z,32.70
2019-04-10T22:36:52.041Z,32.50
2019-04-10T22:39:21.340Z,33.47
2019-04-10T22:41:50.497Z,33.40
2019-04-10T22:44:19.749Z,30.63
2019-04-10T22:46:48.855Z,34.83
2019-04-10T22:49:18.438Z,31.97
2019-04-10T22:51:47.432Z,36.97
2019-04-10T22:54:17.833Z,33.80
2019-04-10T22:56:47.778Z,34.33
2019-04-10T22:59:17.849Z,32.97
2019-04-10T23:01:59.338Z,32.50
2019-04-10T23:04:17.838Z,32.27
2019-04-10T23:06:47.240Z,32.20
2019-04-10T23:09:16.283Z,32.53
2019-04-10T23:11:46.872Z,31.53
2019-04-10T23:14:15.983Z,30.73
2019-04-10T23:16:44.919Z,31.63
2019-04-10T23:19:14.120Z,30.60
2019-04-10T23:21:43.211Z,31.10
2019-04-10T23:24:13.610Z,32.97
2019-04-10T23:26:42.632Z,29.27
2019-04-10T23:29:11.844Z,29.80
2019-04-10T23:31:41.606Z,29.03
2019-04-10T23:34:10.947Z,28.87
2019-04-10T23:36:40.406Z,28.47
2019-04-10T23:39:10.682Z,30.50
2019-04-10T23:41:40.051Z,30.60
2019-04-10T23:44:09.024Z,29.00
2019-04-10T23:46:38.873Z,29.47
2019-04-10T23:49:08.997Z,27.13
2019-04-10T23:51:39.086Z,28.77
2019-04-10T23:54:08.992Z,27.00
2019-04-10T23:56:38.272Z,25.87
2019-04-10T23:59:08.646Z,26.77
